Terminal Aerodrome Forecast
Issued by NWS Albany, NY

Home | Current Version | Previous Version | Text Only | Print | Product List | Glossary On
Versions: 1 2 3 4 5 6 7 8 9 10 11 12 13 14 15 16
784
FTUS41 KALY 251143
TAFGFL
TAF
KGFL 251143Z 2512/2612 21005KT P6SM FEW180 BKN250
     FM251300 20007KT P6SM BKN060 OVC120
     FM251600 19010G16KT P6SM VCSH BKN050 OVC100
     FM252200 20008KT P6SM VCSH SCT020 OVC050
     FM260300 20004KT 4SM BR VCSH FEW008 BKN020
     FM260800 VRB03KT 2SM BR VCSH BKN008 OVC018=

USA.gov is the U.S. government's official web portal to all federal, state and local government web resources and services.